Klemme/'s Corner

Nearby METAR Reports

 

KI67 - Harrison, Ohio, USA
Distance from station: ESE 14mi, 23km
Updated: Sat, 19-Jan-2019 11:55am EST
Overcast
Overcast
 Wind from ENE
Wind: ENE 7 mph , 11 km/h
Temperature: 34°F , 1°C
Wind Chill: 28°F , -2°C
Dew Point: 32°F , 0°C
Humidity: 93%
Barometer: 29.71 inHg , 1006.1 hPa
Clouds: Overcast
Visibility: 2 miles , 3 km
Cloud details: Overcast 400 ft
2019/01/19 16:55 KI67 191655Z AUTO 06006KT 2SM OVC004 01/00 A2971 RMK AO1 P0010
KHAO - Hamilton, Ohio, USA
Distance from station: E 26mi, 42km
Updated: Sat, 19-Jan-2019 11:53am EST
Light rain, Mist, Overcast
Light rain, Mist, Overcast
 Wind from ENE
Wind: ENE 7 mph , 11 km/h
Temperature: 36°F , 2°C
Wind Chill: 30°F , -1°C
Dew Point: 34°F , 1°C
Humidity: 93%
Barometer: 29.74 inHg , 1007.1 hPa
Summary: Light rain, Mist
Clouds: Overcast
Visibility: 3 miles , 5 km
Cloud details: Overcast 1000 ft
2019/01/19 16:53 KHAO 191653Z AUTO 07006KT 3SM -RA BR OVC010 02/01 A2974 RMK AO2 SLP075 P0014 T00170006
 
KCVG - Covington, Kentucky, USA
Distance from station: SE 28mi, 45km
Updated: Sat, 19-Jan-2019 11:52am EST
Rain, Mist, Overcast
Rain, Mist, Overcast
 Wind from ENE
Wind: ENE 10 mph , 17 km/h
Temperature: 37°F , 3°C
Wind Chill: 30°F , -1°C
Dew Point: 37°F , 3°C
Humidity: 100%
Barometer: 29.68 inHg , 1005.1 hPa
Summary: Rain, Mist
Clouds: Overcast
Visibility: 3/4 mile , 1.2 km
Cloud details: Overcast 400 ft
2019/01/19 16:52 KCVG 191652Z 06009KT 3/4SM R18C/P6000FT RA BR OVC004 03/03 A2968 RMK AO2 SFC VIS 2 PRESFR SLP054 P0010 T00330028
KRID - Richmond, Indiana, USA
Distance from station: NNE 29mi, 46km
Updated: Sat, 19-Jan-2019 11:55am EST
Light rain, Overcast
Light rain, Overcast
 
Temperature: 32°F , 0°C
Dew Point: 32°F , 0°C
Humidity: 100%
Barometer: 29.74 inHg , 1007.1 hPa
Summary: Light rain
Clouds: Overcast
Visibility: 2 1/2 miles , 4 km
Cloud details: Overcast 600 ft
2019/01/19 16:55 KRID 191655Z AUTO 2 1/2SM -RA OVC006 00/00 A2974 RMK AO2 P0003
 
KMWO - Middletown/Hook, Ohio, USA
Distance from station: ENE 35mi, 56km
Updated: Sat, 19-Jan-2019 11:55am EST
Light rain, Mist, Overcast
Light rain, Mist, Overcast
 Wind from NE
Wind: NE 9 mph , 15 km/h
Temperature: 34°F , 1°C
Wind Chill: 27°F , -3°C
Dew Point: 34°F , 1°C
Humidity: 100%
Barometer: 29.75 inHg , 1007.5 hPa
Summary: Light rain, Mist
Clouds: Overcast
Visibility: 2 1/2 miles , 4 km
Cloud details: Overcast 1100 ft
2019/01/19 16:55 KMWO 191655Z AUTO 05008KT 2 1/2SM -RA BR OVC011 01/01 A2975 RMK AO2 P0012 T00120005
KLUK - Cincinnat/Lunken, Ohio, USA
Distance from station: ESE 36mi, 58km
Updated: Sat, 19-Jan-2019 11:53am EST
Light rain, Mist, Overcast
Light rain, Mist, Overcast
 Wind from NNE
Wind: NNE 7 mph , 11 km/h
Temperature: 39°F , 4°C
Wind Chill: 34°F , 1°C
Dew Point: 37°F , 3°C
Humidity: 93%
Barometer: 29.73 inHg , 1006.8 hPa
Summary: Light rain, Mist
Clouds: Overcast
Visibility: 3 miles , 5 km
Cloud details: Overcast 800 ft
2019/01/19 16:53 KLUK 191653Z 03006KT 3SM -RA BR OVC008 04/03 A2973 RMK AO2 SLP070 P0009 T00390028
 
KMGY - Dayton, Ohio, USA
Distance from station: ENE 45mi, 72km
Updated: Sat, 19-Jan-2019 11:53am EST
Rain, Mist, Overcast
Rain, Mist, Overcast
 Wind from ENE
Wind: ENE 13 mph , 20 km/h
Temperature: 36°F , 2°C
Wind Chill: 27°F , -3°C
Dew Point: 36°F , 2°C
Humidity: 100%
Barometer: 29.73 inHg , 1006.8 hPa
Summary: Rain, Mist
Clouds: Overcast
Visibility: 2 miles , 3 km
Cloud details: Overcast 600 ft
2019/01/19 16:53 KMGY 191653Z AUTO 07011KT 2SM RA BR OVC006 02/02 A2973 RMK AO2 SLP073 P0012 T00170017
KGEZ - Shelbyville, Indiana, USA
Distance from station: WNW 45mi, 73km
Updated: Sat, 19-Jan-2019 11:53am EST
Light rain, Mist, Overcast
Light rain, Mist, Overcast
 Wind from NE
Wind: NE 15 mph , 24 km/h
Temperature: 36°F , 2°C
Wind Chill: 27°F , -3°C
Dew Point: 32°F , 0°C
Humidity: 87%
Barometer: 29.72 inHg , 1006.4 hPa
Summary: Light rain, Mist
Clouds: Overcast
Visibility: 1 3/4 miles , 2.8 km
Cloud details: Overcast 700 ft
2019/01/19 16:53 KGEZ 191653Z AUTO 04013KT 1 3/4SM -RA BR OVC007 02/00 A2972 RMK AO2 SLP069 P0008 T00170000
 
KI69 - Batavia, Ohio, USA
Distance from station: ESE 46mi, 74km
Updated: Sat, 19-Jan-2019 11:56am EST
Light snow, Overcast
Light snow, Overcast
 Wind from ESE
Wind: ESE 6 mph , 9 km/h
Temperature: 39°F , 4°C
Wind Chill: 35°F , 2°C
Dew Point: 39°F , 4°C
Humidity: 100%
Barometer: 29.72 inHg , 1006.4 hPa
Summary: Light Snow
Clouds: Overcast
Visibility: 2 miles , 3 km
Cloud details: Overcast 500 ft
2019/01/19 16:56 KI69 191656Z AUTO 11005KT 2SM -SN OVC005 04/04 A2972 RMK AO2 P0007 T00390036
KIMS - Madison, Indiana, USA
Distance from station: SSW 48mi, 76km
Updated: Sat, 19-Jan-2019 11:55am EST
Overcast
Overcast
 Wind from ENE
Wind: ENE 8 mph , 13 km/h
Temperature: 39°F , 4°C
Wind Chill: 33°F , 1°C
Dew Point: 39°F , 4°C
Humidity: 100%
Barometer: 29.66 inHg , 1004.4 hPa
Clouds: Overcast
Visibility: 5 miles , 8 km
Cloud details: Mostly cloudy 500 ft
Overcast 1100 ft
2019/01/19 16:55 KIMS 191655Z AUTO 07007KT 5SM BKN005 OVC011 04/04 A2966 RMK AO1
 
KBAK - Columbus/Balkala, Indiana, USA
Distance from station: W 48mi, 78km
Updated: Sat, 19-Jan-2019 11:45am EST
Light rain, Mist, Overcast
Light rain, Mist, Overcast
 Wind from NNE
Wind: NNE 8 mph , 13 km/h
Temperature: 36°F , 2°C
Wind Chill: 30°F , -1°C
Dew Point: 32°F , 0°C
Humidity: 87%
Barometer: 29.71 inHg , 1006.1 hPa
Summary: Light rain, Mist
Clouds: Overcast
Visibility: 1 1/2 miles , 2.4 km
Cloud details: Overcast 700 ft
2019/01/19 16:45 KBAK 191645Z 03007KT 1 1/2SM -RA BR OVC007 02/00 A2971